(°C)
14°
14°
14°
13°
13°
13°
13°
(°C)
SSE
SSE
SSE
SSE
S
S
S
(km/h)
19-38
20-38
20-37
20-37
20-37
20-39
21-41
(mm)
0
0.1
0
0
0
0
0
(%)
30
35
37
44
51
53
55

Elevația soarelui

/ -30.3°
sun-icon
UV 1
07:39
18:06
Al doilea pătrar (233°)
20:56
12:55

METAR pentru Renton (KRNT)

Ora Condiții Temperatură/
Punctul de rouă
Vânt Vizibilitate Vremea Nori Presiune Schimbă Brut
VFR 13.9°C / 2.2°C 160º 12kt Gust 29kt >10km - Overcast 9500ft 991 - KRNT 251053Z AUTO 16012G29KT 10SM OVC095 14/02 A2927 RMK AO2 PK WND 18029/1050 SLP916 T01390022
VFR 13.9°C / 2.2°C 160º 15kt Gust 28kt >10km - Overcast 9000ft 991 - KRNT 250953Z AUTO 16015G28KT 10SM OVC090 14/02 A2925 RMK AO2 PK WND 17028/0953 SLP910 T01390022
VFR 13.9°C / 2.8°C 160º 14kt Gust 27kt >10km - Overcast 10000ft 990 - KRNT 250853Z AUTO 16014G27KT 10SM OVC100 14/03 A2923 RMK AO2 PK WND 17027/0847 SLP904 T01390028 53012
VFR 13.9°C / 2.8°C 160º 12kt Gust 20kt >10km - Few Clouds 7000ft
Overcast 10000ft
990 - KRNT 250753Z AUTO 16012G20KT 10SM FEW070 OVC100 14/03 A2922 RMK AO2 SLP900 T01390028 401610094
VFR 13.9°C / 2.8°C 160º 9kt Gust 17kt >10km - Few Clouds 6500ft
Overcast 11000ft
989 - KRNT 250653Z AUTO 16009G17KT 10SM FEW065 OVC110 14/03 A2921 RMK AO2 SLP895 T01390028
VFR 12.8°C / 3.9°C 150º 6kt >10km - Few Clouds 6500ft
Overcast 12000ft
989 - KRNT 250553Z AUTO 15006KT 10SM FEW065 OVC120 13/04 A2920 RMK AO2 SLP892 T01280039 10139 20106 53017
VFR 11.7°C / 5°C 140º 5kt >10km - Few Clouds 6500ft 988 - KRNT 250453Z AUTO 14005KT 10SM FEW065 12/05 A2918 RMK AO2 SLP885 T01170050
VFR 13.3°C / 3.9°C 160º 13kt Gust 21kt >10km - Clear 987 - KRNT 250353Z AUTO 16013G21KT 10SM CLR 13/04 A2915 RMK AO2 SLP877 T01330039
VFR 11.1°C / 7.2°C 160º 4kt >10km - Few Clouds 7000ft
Broken Clouds 9000ft
987 - KRNT 250253Z AUTO 16004KT 10SM FEW070 BKN090 11/07 A2915 RMK AO2 SLP876 T01110072 53012
VFR 11.1°C / 7.2°C variable 5kt >10km - Few Clouds 4700ft
Broken Clouds 6500ft
Broken Clouds 9000ft
986 - KRNT 250153Z VRB05KT 10SM FEW047 BKN065 BKN090 11/07 A2913 RMK AO2 SLP868 T01110072
VFR 11.7°C / 7.2°C 160º 6kt >10km - Broken Clouds 9000ft 986 - KRNT 250053Z 16006KT 10SM BKN090 12/07 A2911 RMK AO2 SLP861 T01170072
VFR 12.2°C / 11.1°C 150º 4kt >10km - Broken Clouds 4000ft 986 - KRNT 242353Z 15004KT 10SM BKN040 12/11 A2911 RMK AO2 SLP864 60017 T01220111 10156 20100 50014
VFR 10.6°C / 9.4°C variable 4kt >10km 0.51mm precipitation Clear 987 - KRNT 242253Z VRB04KT 10SM CLR 11/09 A2913 RMK AO2 PK WND 15032/2203 RAE16 SLP870 P0002 T01060094
MVFR 10.6°C / 8.9°C 130º variable 090º to 160º 16kt Gust 32kt 4800m Light Rain Mist 0.51mm precipitation Broken Clouds 4300ft
Overcast 5500ft
- KRNT 242203Z 13016G32KT 090V160 3SM -RA BR BKN043 OVC055 11/09 A2910 RMK AO2 PK WND 15032/2203 PRESFR P0002 T01060089
IFR 11.1°C / 8.9°C 190º 13kt Gust 32kt 2800m Rain Mist 1.27mm precipitation Few Clouds 4000ft
Broken Clouds 4900ft
Overcast 6500ft
- KRNT 242143Z 19013G32KT 1 3/4SM RA BR FEW040 BKN049 OVC065 11/09 A2913 RMK AO2 PK WND 18032/2134 P0005 T01110089
VFR 12.2°C / 7.8°C 190º variable 130º to 220º 7kt Gust 20kt >10km Light Rain 1.27mm precipitation Few Clouds 3700ft
Broken Clouds 5000ft
Overcast 6000ft
985 - KRNT 242053Z 19007G20KT 130V220 7SM -RA FEW037 BKN050 OVC060 12/08 A2907 RMK AO2 PK WND 24034/2029 RAB30 SLP850 P0005 60005 T01220078 53006
MVFR 12.2°C / 8.3°C 180º 10kt Gust 20kt 4800m Light Rain 1.27mm precipitation Few Clouds 3700ft
Broken Clouds 4800ft
Overcast 6000ft
- KRNT 242044Z 18010G20KT 3SM -RA FEW037 BKN048 OVC060 12/08 A2907 RMK AO2 PK WND 24034/2029 RAB30 P0005 T01220083
IFR 12.8°C / 8.3°C 200º 13kt Gust 34kt 2800m Rain 1.02mm precipitation Few Clouds 3700ft
Scattered Clouds 5000ft
Overcast 6000ft
- KRNT 242035Z 20013G34KT 1 3/4SM RA FEW037 SCT050 OVC060 13/08 A2907 RMK AO2 PK WND 24034/2029 RAB30 P0004 T01280083
VFR 15°C / 6.1°C 130º 6kt Gust 19kt >10km 0.13mm precipitation Overcast 6500ft 982 - KRNT 241953Z 13006G19KT 10SM OVC065 15/06 A2901 RMK AO2 RAB1855E14 SLP828 P0000 T01500061
VFR 13.9°C / 7.2°C 140º 7kt >10km 0.13mm precipitation Broken Clouds 7000ft
Broken Clouds 8000ft
Overcast 11000ft
983 - KRNT 241853Z 14007KT 10SM BKN070 BKN080 OVC110 14/07 A2904 RMK AO2 RAE31 SLP838 P0000 T01390072 $
VFR 12.8°C / 7.8°C 140º 5kt >10km Light Rain 0.76mm precipitation Overcast 7000ft 984 - KRNT 241753Z 14005KT 9SM -RA OVC070 13/08 A2906 RMK AO2 SLP844 P0003 60005 T01280078 10161 20128 55004 $
VFR 14.4°C / 6.1°C 150º 10kt Gust 20kt >10km Light Rain 0.25mm precipitation Broken Clouds 7000ft
Overcast 8500ft
983 - KRNT 241653Z 15010G20KT 7SM -RA BKN070 OVC085 14/06 A2904 RMK AO2 PK WND 12030/1611 SLP838 P0001 T01440061 $
VFR 15°C / 5.6°C 140º 13kt Gust 26kt >10km Light Rain 0.25mm precipitation Overcast 8000ft 983 - KRNT 241553Z 14013G26KT 10SM -RA OVC080 15/06 A2904 RMK AO2 PK WND 12029/1457 RAB1459 SLP838 P0001 T01500056 $
VFR 15.6°C / 5°C 130º variable 090º to 150º 12kt Gust 25kt >10km - Broken Clouds 7500ft
Overcast 9000ft
984 - KRNT 241453Z 13012G25KT 090V150 10SM BKN075 OVC090 16/05 A2907 RMK AO2 PK WND 13028/1431 SLP848 T01560050 56065 $

VFR

13.9°C / 2.2°C

[Mai mult]
Vânt 160º 12kt Gust 29kt
Vizibilitate >10km
Vremea -
Nori Overcast 9500ft
Presiune 991
Schimbă -
Brut KRNT 251053Z AUTO 16012G29KT 10SM OVC095 14/02 A2927 RMK AO2 PK WND 18029/1050 SLP916 T01390022

VFR

13.9°C / 2.2°C

[Mai mult]
Vânt 160º 15kt Gust 28kt
Vizibilitate >10km
Vremea -
Nori Overcast 9000ft
Presiune 991
Schimbă -
Brut KRNT 250953Z AUTO 16015G28KT 10SM OVC090 14/02 A2925 RMK AO2 PK WND 17028/0953 SLP910 T01390022

VFR

13.9°C / 2.8°C

[Mai mult]
Vânt 160º 14kt Gust 27kt
Vizibilitate >10km
Vremea -
Nori Overcast 10000ft
Presiune 990
Schimbă -
Brut KRNT 250853Z AUTO 16014G27KT 10SM OVC100 14/03 A2923 RMK AO2 PK WND 17027/0847 SLP904 T01390028 53012

VFR

13.9°C / 2.8°C

[Mai mult]
Vânt 160º 12kt Gust 20kt
Vizibilitate >10km
Vremea -
Nori Few Clouds 7000ft
Overcast 10000ft
Presiune 990
Schimbă -
Brut KRNT 250753Z AUTO 16012G20KT 10SM FEW070 OVC100 14/03 A2922 RMK AO2 SLP900 T01390028 401610094

VFR

13.9°C / 2.8°C

[Mai mult]
Vânt 160º 9kt Gust 17kt
Vizibilitate >10km
Vremea -
Nori Few Clouds 6500ft
Overcast 11000ft
Presiune 989
Schimbă -
Brut KRNT 250653Z AUTO 16009G17KT 10SM FEW065 OVC110 14/03 A2921 RMK AO2 SLP895 T01390028

VFR

12.8°C / 3.9°C

[Mai mult]
Vânt 150º 6kt
Vizibilitate >10km
Vremea -
Nori Few Clouds 6500ft
Overcast 12000ft
Presiune 989
Schimbă -
Brut KRNT 250553Z AUTO 15006KT 10SM FEW065 OVC120 13/04 A2920 RMK AO2 SLP892 T01280039 10139 20106 53017

VFR

11.7°C / 5°C

[Mai mult]
Vânt 140º 5kt
Vizibilitate >10km
Vremea -
Nori Few Clouds 6500ft
Presiune 988
Schimbă -
Brut KRNT 250453Z AUTO 14005KT 10SM FEW065 12/05 A2918 RMK AO2 SLP885 T01170050

VFR

13.3°C / 3.9°C

[Mai mult]
Vânt 160º 13kt Gust 21kt
Vizibilitate >10km
Vremea -
Nori Clear
Presiune 987
Schimbă -
Brut KRNT 250353Z AUTO 16013G21KT 10SM CLR 13/04 A2915 RMK AO2 SLP877 T01330039

VFR

11.1°C / 7.2°C

[Mai mult]
Vânt 160º 4kt
Vizibilitate >10km
Vremea -
Nori Few Clouds 7000ft
Broken Clouds 9000ft
Presiune 987
Schimbă -
Brut KRNT 250253Z AUTO 16004KT 10SM FEW070 BKN090 11/07 A2915 RMK AO2 SLP876 T01110072 53012

VFR

11.1°C / 7.2°C

[Mai mult]
Vânt variable 5kt
Vizibilitate >10km
Vremea -
Nori Few Clouds 4700ft
Broken Clouds 6500ft
Broken Clouds 9000ft
Presiune 986
Schimbă -
Brut KRNT 250153Z VRB05KT 10SM FEW047 BKN065 BKN090 11/07 A2913 RMK AO2 SLP868 T01110072

VFR

11.7°C / 7.2°C

[Mai mult]
Vânt 160º 6kt
Vizibilitate >10km
Vremea -
Nori Broken Clouds 9000ft
Presiune 986
Schimbă -
Brut KRNT 250053Z 16006KT 10SM BKN090 12/07 A2911 RMK AO2 SLP861 T01170072

VFR

12.2°C / 11.1°C

[Mai mult]
Vânt 150º 4kt
Vizibilitate >10km
Vremea -
Nori Broken Clouds 4000ft
Presiune 986
Schimbă -
Brut KRNT 242353Z 15004KT 10SM BKN040 12/11 A2911 RMK AO2 SLP864 60017 T01220111 10156 20100 50014

VFR

10.6°C / 9.4°C

[Mai mult]
Vânt variable 4kt
Vizibilitate >10km
Vremea 0.51mm precipitation
Nori Clear
Presiune 987
Schimbă -
Brut KRNT 242253Z VRB04KT 10SM CLR 11/09 A2913 RMK AO2 PK WND 15032/2203 RAE16 SLP870 P0002 T01060094

MVFR

10.6°C / 8.9°C

[Mai mult]
Vânt 130º variable 090º to 160º 16kt Gust 32kt
Vizibilitate 4800m
Vremea Light Rain Mist 0.51mm precipitation
Nori Broken Clouds 4300ft
Overcast 5500ft
Presiune
Schimbă -
Brut KRNT 242203Z 13016G32KT 090V160 3SM -RA BR BKN043 OVC055 11/09 A2910 RMK AO2 PK WND 15032/2203 PRESFR P0002 T01060089

IFR

11.1°C / 8.9°C

[Mai mult]
Vânt 190º 13kt Gust 32kt
Vizibilitate 2800m
Vremea Rain Mist 1.27mm precipitation
Nori Few Clouds 4000ft
Broken Clouds 4900ft
Overcast 6500ft
Presiune
Schimbă -
Brut KRNT 242143Z 19013G32KT 1 3/4SM RA BR FEW040 BKN049 OVC065 11/09 A2913 RMK AO2 PK WND 18032/2134 P0005 T01110089

VFR

12.2°C / 7.8°C

[Mai mult]
Vânt 190º variable 130º to 220º 7kt Gust 20kt
Vizibilitate >10km
Vremea Light Rain 1.27mm precipitation
Nori Few Clouds 3700ft
Broken Clouds 5000ft
Overcast 6000ft
Presiune 985
Schimbă -
Brut KRNT 242053Z 19007G20KT 130V220 7SM -RA FEW037 BKN050 OVC060 12/08 A2907 RMK AO2 PK WND 24034/2029 RAB30 SLP850 P0005 60005 T01220078 53006

MVFR

12.2°C / 8.3°C

[Mai mult]
Vânt 180º 10kt Gust 20kt
Vizibilitate 4800m
Vremea Light Rain 1.27mm precipitation
Nori Few Clouds 3700ft
Broken Clouds 4800ft
Overcast 6000ft
Presiune
Schimbă -
Brut KRNT 242044Z 18010G20KT 3SM -RA FEW037 BKN048 OVC060 12/08 A2907 RMK AO2 PK WND 24034/2029 RAB30 P0005 T01220083

IFR

12.8°C / 8.3°C

[Mai mult]
Vânt 200º 13kt Gust 34kt
Vizibilitate 2800m
Vremea Rain 1.02mm precipitation
Nori Few Clouds 3700ft
Scattered Clouds 5000ft
Overcast 6000ft
Presiune
Schimbă -
Brut KRNT 242035Z 20013G34KT 1 3/4SM RA FEW037 SCT050 OVC060 13/08 A2907 RMK AO2 PK WND 24034/2029 RAB30 P0004 T01280083

VFR

15°C / 6.1°C

[Mai mult]
Vânt 130º 6kt Gust 19kt
Vizibilitate >10km
Vremea 0.13mm precipitation
Nori Overcast 6500ft
Presiune 982
Schimbă -
Brut KRNT 241953Z 13006G19KT 10SM OVC065 15/06 A2901 RMK AO2 RAB1855E14 SLP828 P0000 T01500061

VFR

13.9°C / 7.2°C

[Mai mult]
Vânt 140º 7kt
Vizibilitate >10km
Vremea 0.13mm precipitation
Nori Broken Clouds 7000ft
Broken Clouds 8000ft
Overcast 11000ft
Presiune 983
Schimbă -
Brut KRNT 241853Z 14007KT 10SM BKN070 BKN080 OVC110 14/07 A2904 RMK AO2 RAE31 SLP838 P0000 T01390072 $

VFR

12.8°C / 7.8°C

[Mai mult]
Vânt 140º 5kt
Vizibilitate >10km
Vremea Light Rain 0.76mm precipitation
Nori Overcast 7000ft
Presiune 984
Schimbă -
Brut KRNT 241753Z 14005KT 9SM -RA OVC070 13/08 A2906 RMK AO2 SLP844 P0003 60005 T01280078 10161 20128 55004 $

VFR

14.4°C / 6.1°C

[Mai mult]
Vânt 150º 10kt Gust 20kt
Vizibilitate >10km
Vremea Light Rain 0.25mm precipitation
Nori Broken Clouds 7000ft
Overcast 8500ft
Presiune 983
Schimbă -
Brut KRNT 241653Z 15010G20KT 7SM -RA BKN070 OVC085 14/06 A2904 RMK AO2 PK WND 12030/1611 SLP838 P0001 T01440061 $

VFR

15°C / 5.6°C

[Mai mult]
Vânt 140º 13kt Gust 26kt
Vizibilitate >10km
Vremea Light Rain 0.25mm precipitation
Nori Overcast 8000ft
Presiune 983
Schimbă -
Brut KRNT 241553Z 14013G26KT 10SM -RA OVC080 15/06 A2904 RMK AO2 PK WND 12029/1457 RAB1459 SLP838 P0001 T01500056 $

VFR

15.6°C / 5°C

[Mai mult]
Vânt 130º variable 090º to 150º 12kt Gust 25kt
Vizibilitate >10km
Vremea -
Nori Broken Clouds 7500ft
Overcast 9000ft
Presiune 984
Schimbă -
Brut KRNT 241453Z 13012G25KT 090V150 10SM BKN075 OVC090 16/05 A2907 RMK AO2 PK WND 13028/1431 SLP848 T01560050 56065 $

Imagini satelitare actuale pentru: Renton, Statele Unite

Markerul cu locaţia este poziţionat pe Renton. [Mai mult]

Imaginea satelitară în timp real combină lumina vizibilă din timpul zilei cu radiația cu infraroșu din timpul nopții. Pe timp de noapte, imaginea nu este întunecată, deoarece radiația cu infraroșu poate detecta diferențele de temperatură. Din păcate, norii joși și ceața sunt greu de recunoscut față de temperatura de la sol, din această cauză putând fi invizibili pe timp de noapte. Imaginile satelitare Meteosat pentru Europa sunt actualizate în timp real din 5 în 5 minute. Imaginile GOES-16/GOES-17 (America de Nord și de Sud) și Himawari (Asia) sunt actualizate din 10 în 10 minute.

Radar și nowcast de precipitații pentru Renton

Burniță
Ușoară
Moderat
Greu
Foarte greu
Grindină

Markerul de locație este plasat în Renton. Această animație arată radarul de precipitații pentru ultima oră, precum și o 1h prognoză. Ploaia sau ninsoarea slabă ar putea fi invizibilă pentru radar. Intensitatea precipitațiilor este codificată prin culori, de la albastru deschis la portocaliu.